createdAt,value
2024-05-09T00:04:05.435Z,99.90
2024-05-09T00:09:08.029Z,99.90
2024-05-09T00:14:10.849Z,99.90
2024-05-09T00:19:13.507Z,99.90
2024-05-09T00:24:15.981Z,99.90
2024-05-09T00:29:18.503Z,99.90
2024-05-09T00:34:21.054Z,99.90
2024-05-09T00:39:23.411Z,99.90
2024-05-09T00:44:25.937Z,99.90
2024-05-09T00:49:29.141Z,99.90
2024-05-09T00:54:31.748Z,99.90
2024-05-09T00:59:34.597Z,99.90
2024-05-09T01:04:37.021Z,99.90
2024-05-09T01:09:39.424Z,99.90
2024-05-09T01:14:41.766Z,99.90
2024-05-09T01:19:44.625Z,99.90
2024-05-09T01:24:47.005Z,99.90
2024-05-09T01:29:49.387Z,99.90
2024-05-09T01:34:51.766Z,99.90
2024-05-09T01:39:54.128Z,99.90
2024-05-09T01:44:56.429Z,99.90
2024-05-09T01:49:58.810Z,99.90
2024-05-09T01:55:04.658Z,99.90
2024-05-09T02:00:10.338Z,99.90
2024-05-09T02:05:13.124Z,99.90
2024-05-09T02:10:20.482Z,99.90
2024-05-09T02:15:28.502Z,99.90
2024-05-09T02:20:36.186Z,99.90
2024-05-09T02:25:39.512Z,99.90
2024-05-09T02:30:42.657Z,99.90
2024-05-09T02:35:45.291Z,99.90
2024-05-09T02:40:47.757Z,99.90
2024-05-09T02:45:50.123Z,99.90
2024-05-09T02:50:52.510Z,99.90
2024-05-09T02:55:54.916Z,99.90
2024-05-09T03:00:57.287Z,99.90
2024-05-09T03:05:59.628Z,99.90
2024-05-09T03:11:02.017Z,99.90
2024-05-09T03:16:04.779Z,99.90
2024-05-09T03:21:07.554Z,99.90
2024-05-09T03:26:15.131Z,99.90
2024-05-09T03:31:19.251Z,99.90
2024-05-09T03:36:21.866Z,99.90
2024-05-09T03:41:24.300Z,99.90
2024-05-09T03:46:26.721Z,99.90
2024-05-09T03:51:29.196Z,99.90
2024-05-09T03:56:31.598Z,99.90
2024-05-09T04:01:34.114Z,99.90
2024-05-09T04:06:36.459Z,99.90
2024-05-09T04:11:38.893Z,99.90
2024-05-09T04:16:41.295Z,99.90
2024-05-09T04:21:43.643Z,99.90
2024-05-09T04:26:45.953Z,99.90
2024-05-09T04:31:48.326Z,99.90
2024-05-09T04:36:50.698Z,99.90
2024-05-09T04:41:53.013Z,99.90
2024-05-09T04:46:55.373Z,99.90
2024-05-09T04:51:57.735Z,99.90
2024-05-09T04:57:00.071Z,99.60
2024-05-09T05:02:02.593Z,96.90
2024-05-09T05:07:05.291Z,94.10
2024-05-09T05:12:28.285Z,92.50
2024-05-09T05:17:30.869Z,90.50
2024-05-09T05:22:33.383Z,90.00
2024-05-09T05:27:35.735Z,85.90
2024-05-09T05:32:38.224Z,85.50
2024-05-09T05:37:40.667Z,88.30
2024-05-09T05:42:43.362Z,84.60
2024-05-09T05:47:46.058Z,82.90
2024-05-09T05:52:48.643Z,81.70
2024-05-09T05:57:50.992Z,84.20
2024-05-09T06:02:53.486Z,84.00
2024-05-09T06:07:56.138Z,78.90
2024-05-09T06:12:58.525Z,79.30
2024-05-09T06:18:01.544Z,77.10
2024-05-09T06:23:04.883Z,77.30
2024-05-09T06:28:07.607Z,79.00
2024-05-09T06:33:14.455Z,81.00
2024-05-09T06:38:18.398Z,79.10
2024-05-09T06:43:20.993Z,80.00
2024-05-09T06:48:23.644Z,75.90
2024-05-09T06:53:26.161Z,83.20
2024-05-09T06:58:28.500Z,81.30
2024-05-09T07:03:31.835Z,78.40
2024-05-09T07:08:34.350Z,81.10
2024-05-09T07:13:36.757Z,80.40
2024-05-09T07:18:39.370Z,78.50
2024-05-09T07:23:43.727Z,78.60
2024-05-09T07:28:47.876Z,78.50
2024-05-09T07:33:50.358Z,80.60
2024-05-09T07:38:52.850Z,82.80
2024-05-09T07:43:55.303Z,89.10
2024-05-09T07:50:35.431Z,84.90
2024-05-09T07:54:20.484Z,82.60
2024-05-09T07:59:22.881Z,80.90
2024-05-09T08:04:26.574Z,79.90
2024-05-09T08:09:29.146Z,85.00
2024-05-09T08:14:31.807Z,85.20
2024-05-09T08:19:35.075Z,87.60
2024-05-09T08:24:37.919Z,85.90
2024-05-09T08:29:40.890Z,84.90
2024-05-09T08:34:43.394Z,85.90
2024-05-09T08:39:46.004Z,91.00
2024-05-09T08:44:49.678Z,91.30
2024-05-09T08:49:51.963Z,91.70
2024-05-09T08:54:55.129Z,90.00
2024-05-09T09:00:04.827Z,79.10
2024-05-09T09:05:17.071Z,82.00
2024-05-09T09:10:29.904Z,78.70
2024-05-09T09:15:35.090Z,75.60
2024-05-09T09:20:37.657Z,75.30
2024-05-09T09:25:41.037Z,73.90
2024-05-09T09:30:43.846Z,72.80
2024-05-09T09:35:46.321Z,71.00
2024-05-09T09:40:50.227Z,69.20
2024-05-09T09:45:55.433Z,71.70
2024-05-09T09:50:58.194Z,71.10
2024-05-09T09:56:02.357Z,71.60
2024-05-09T10:01:05.144Z,72.30
2024-05-09T10:06:09.505Z,71.30
2024-05-09T10:11:12.199Z,70.60
2024-05-09T10:16:23.163Z,71.30
2024-05-09T10:21:27.297Z,71.60
2024-05-09T10:26:34.271Z,73.80
2024-05-09T10:31:41.319Z,73.70
2024-05-09T10:36:44.570Z,73.00
2024-05-09T10:41:47.411Z,72.20
2024-05-09T10:46:50.730Z,71.60
2024-05-09T10:51:53.470Z,70.50
2024-05-09T10:56:59.176Z,71.00
2024-05-09T11:02:10.710Z,70.00
2024-05-09T11:07:19.465Z,69.90
2024-05-09T11:12:24.713Z,70.60
2024-05-09T11:17:27.461Z,68.80
2024-05-09T11:22:36.036Z,67.60
2024-05-09T11:27:40.824Z,68.80
2024-05-09T11:32:43.472Z,67.10
2024-05-09T11:37:47.922Z,65.10
2024-05-09T11:42:53.010Z,65.60
2024-05-09T11:47:55.800Z,65.60
2024-05-09T11:52:58.216Z,66.50
2024-05-09T11:58:00.622Z,67.70
2024-05-09T12:03:04.782Z,67.30
2024-05-09T12:08:08.271Z,67.80
2024-05-09T12:13:10.868Z,67.20
2024-05-09T12:18:13.414Z,66.30
2024-05-09T12:23:15.933Z,64.40
2024-05-09T12:28:18.712Z,67.70
2024-05-09T12:33:21.762Z,67.00
2024-05-09T12:38:24.222Z,66.50
2024-05-09T12:43:26.795Z,67.10
2024-05-09T12:48:29.802Z,67.20
2024-05-09T12:53:32.280Z,66.00
2024-05-09T12:58:34.706Z,64.70
2024-05-09T13:03:37.353Z,67.00
2024-05-09T13:08:40.441Z,65.20
2024-05-09T13:13:42.835Z,66.10
2024-05-09T13:18:45.647Z,66.80
2024-05-09T13:23:48.057Z,66.10
2024-05-09T13:28:50.431Z,67.30
2024-05-09T13:33:53.125Z,66.50
2024-05-09T13:38:56.587Z,66.90
2024-05-09T13:43:59.361Z,66.60
2024-05-09T13:49:03.434Z,66.60
2024-05-09T13:54:06.036Z,65.70
2024-05-09T13:59:08.958Z,66.30
2024-05-09T14:04:11.764Z,64.10
2024-05-09T14:09:14.347Z,66.20
2024-05-09T14:14:16.814Z,66.10
2024-05-09T14:19:19.482Z,67.30
2024-05-09T14:24:22.082Z,66.70
2024-05-09T14:29:24.445Z,66.20
2024-05-09T14:34:27.986Z,66.30
2024-05-09T14:39:30.553Z,66.30
2024-05-09T14:44:32.991Z,67.00
2024-05-09T14:49:35.506Z,68.40
2024-05-09T14:54:38.093Z,68.20
2024-05-09T14:59:40.663Z,67.50
2024-05-09T15:04:43.388Z,67.70
2024-05-09T15:09:47.086Z,68.70
2024-05-09T15:14:49.470Z,68.00
2024-05-09T15:19:52.151Z,68.80
2024-05-09T15:24:54.698Z,67.90
2024-05-09T15:29:57.092Z,65.70
2024-05-09T15:34:59.535Z,68.30
2024-05-09T15:40:02.591Z,69.10
2024-05-09T15:45:06.106Z,70.70
2024-05-09T15:50:17.087Z,69.30
2024-05-09T15:55:22.979Z,70.00
2024-05-09T16:00:36.462Z,69.60
2024-05-09T16:05:47.042Z,70.80
2024-05-09T16:10:50.451Z,71.10
2024-05-09T16:15:53.769Z,71.40
2024-05-09T16:21:00.408Z,72.20
2024-05-09T16:26:02.969Z,71.50
2024-05-09T16:31:05.617Z,71.90
2024-05-09T16:36:08.582Z,72.40
2024-05-09T16:41:11.221Z,72.10
2024-05-09T16:46:13.679Z,72.10
2024-05-09T16:51:16.190Z,73.10
2024-05-09T16:56:18.643Z,73.40
2024-05-09T17:01:21.246Z,73.90
2024-05-09T17:06:23.802Z,73.80
2024-05-09T17:11:26.337Z,72.90
2024-05-09T17:16:30.423Z,73.80
2024-05-09T17:21:32.974Z,74.20
2024-05-09T17:26:35.471Z,74.40
2024-05-09T17:31:37.993Z,74.20
2024-05-09T17:36:40.441Z,74.10
2024-05-09T17:41:44.151Z,75.10
2024-05-09T17:46:46.437Z,76.40
2024-05-09T17:51:55.497Z,76.70
2024-05-09T17:56:58.521Z,78.30
2024-05-09T18:02:01.113Z,77.50
2024-05-09T18:07:03.804Z,78.80
2024-05-09T18:12:06.999Z,79.80
2024-05-09T18:17:10.660Z,81.40
2024-05-09T18:22:13.250Z,83.90
2024-05-09T18:27:15.679Z,86.30
2024-05-09T18:32:18.647Z,86.60
2024-05-09T18:37:21.202Z,89.70
2024-05-09T18:42:23.723Z,90.80
2024-05-09T18:47:26.416Z,92.30
2024-05-09T18:52:28.921Z,93.30
2024-05-09T18:57:32.708Z,93.90
2024-05-09T19:02:35.270Z,95.20
2024-05-09T19:07:37.989Z,96.20
2024-05-09T19:12:40.468Z,96.20
2024-05-09T19:17:42.975Z,96.70
2024-05-09T19:22:46.364Z,98.00
2024-05-09T19:27:48.780Z,97.40
2024-05-09T19:32:51.445Z,97.50
2024-05-09T19:37:53.929Z,98.50
2024-05-09T19:42:56.484Z,98.60
2024-05-09T19:47:59.357Z,99.00
2024-05-09T19:53:01.855Z,99.50
2024-05-09T19:58:07.299Z,99.90
2024-05-09T20:03:12.448Z,99.90
2024-05-09T20:08:15.495Z,99.90
2024-05-09T20:13:18.005Z,99.90
2024-05-09T20:18:20.736Z,99.90
2024-05-09T20:23:23.333Z,99.90
2024-05-09T20:28:26.082Z,99.90
2024-05-09T20:33:29.656Z,99.90
2024-05-09T20:38:32.166Z,99.90
2024-05-09T20:43:34.603Z,99.90
2024-05-09T20:48:37.138Z,99.90
2024-05-09T20:53:39.578Z,99.90
2024-05-09T20:58:42.167Z,99.90
2024-05-09T21:03:44.812Z,99.90
2024-05-09T21:08:47.181Z,99.90
2024-05-09T21:13:51.612Z,99.90
2024-05-09T21:18:53.970Z,99.90
2024-05-09T21:23:56.368Z,99.90
2024-05-09T21:28:58.670Z,99.90
2024-05-09T21:34:01.464Z,99.90
2024-05-09T21:39:04.154Z,99.90
2024-05-09T21:44:07.031Z,99.90
2024-05-09T21:49:09.530Z,99.90
2024-05-09T21:54:12.079Z,99.90
2024-05-09T21:59:14.564Z,99.90
2024-05-09T22:04:17.370Z,99.90
2024-05-09T22:09:20.144Z,99.90
2024-05-09T22:14:22.817Z,99.90
2024-05-09T22:19:25.700Z,99.90
2024-05-09T22:24:28.103Z,99.90
2024-05-09T22:29:30.497Z,99.90
2024-05-09T22:34:32.818Z,99.90
2024-05-09T22:39:35.198Z,99.90
2024-05-09T22:44:37.637Z,99.90
2024-05-09T22:49:39.978Z,99.90
2024-05-09T22:54:42.441Z,99.90
2024-05-09T22:59:45.056Z,99.90
2024-05-09T23:04:48.038Z,99.90
2024-05-09T23:09:50.575Z,99.90
2024-05-09T23:14:52.954Z,99.90
2024-05-09T23:19:55.439Z,99.90
2024-05-09T23:24:57.997Z,99.90
2024-05-09T23:30:00.404Z,99.90
2024-05-09T23:35:02.848Z,99.90
2024-05-09T23:40:07.269Z,99.90
2024-05-09T23:45:12.069Z,99.90
2024-05-09T23:50:20.502Z,99.90
2024-05-09T23:55:26.666Z,99.90
